Time;durP1;ratioP1;P1;durP2;ratioP2;P2;SDS_P1;SDS_P2;PMS_P1;PMS_P2;Temp;Humidity;BMP_temperature;BMP_pressure;BME280_temperature;BME280_humidity;BME280_pressure;Samples;Min_cycle;Max_cycle;Signal;HPM_P1;HPM_P2
2022/08/17 00:01:06;;;;;;;34.38;31.20;;;19.50;99.90;;;;;;5072719;28;20040;-26
2022/08/17 00:03:37;;;;;;;34.97;31.52;;;19.50;99.90;;;;;;5054926;28;20465;-25
2022/08/17 00:06:14;;;;;;;30.13;27.05;;;19.50;99.90;;;;;;5055042;28;20036;-26
2022/08/17 00:08:49;;;;;;;32.42;29.17;;;19.50;99.90;;;;;;5054977;28;20288;-28
2022/08/17 00:11:21;;;;;;;37.50;33.67;;;19.50;99.90;;;;;;5054739;28;20371;-26
2022/08/17 00:13:49;;;;;;;37.53;33.65;;;19.50;99.90;;;;;;5071165;28;20048;-25
2022/08/17 00:16:36;;;;;;;36.90;33.10;;;19.50;99.90;;;;;;5060234;28;20040;-26
2022/08/17 00:19:07;;;;;;;36.22;32.25;;;19.50;99.90;;;;;;5071265;28;20116;-28
2022/08/17 00:21:35;;;;;;;34.20;30.77;;;19.50;99.90;;;;;;5070996;28;20068;-27
2022/08/17 00:24:02;;;;;;;37.58;33.58;;;19.50;99.90;;;;;;5070893;28;20030;-26
2022/08/17 00:26:28;;;;;;;35.80;32.20;;;19.50;99.90;;;;;;5070853;28;20033;-28
2022/08/17 00:28:54;;;;;;;37.35;33.47;;;19.40;99.90;;;;;;5070790;28;20044;-25
2022/08/17 00:31:21;;;;;;;39.35;35.15;;;19.40;99.90;;;;;;5070855;28;20044;-26
2022/08/17 00:33:48;;;;;;;35.92;32.22;;;19.40;99.90;;;;;;5070685;28;20044;-25
2022/08/17 00:36:15;;;;;;;38.47;34.47;;;19.40;99.90;;;;;;5070879;28;20048;-30
2022/08/17 00:38:41;;;;;;;40.47;36.17;;;19.40;99.90;;;;;;5070521;28;20048;-27
2022/08/17 00:41:16;;;;;;;43.25;38.85;;;19.40;99.90;;;;;;5052952;28;20494;-26
2022/08/17 00:43:50;;;;;;;39.38;35.17;;;19.30;99.90;;;;;;5085735;28;20033;-26
2022/08/17 00:46:27;;;;;;;43.35;38.78;;;19.30;99.90;;;;;;5069927;28;20047;-25
2022/08/17 00:48:53;;;;;;;42.15;37.75;;;19.30;99.90;;;;;;5040881;28;20394;-27
2022/08/17 00:51:38;;;;;;;41.60;37.10;;;19.20;99.90;;;;;;5053763;28;20106;-25
2022/08/17 00:54:07;;;;;;;42.00;37.65;;;19.20;99.90;;;;;;5069530;28;20045;-24
2022/08/17 00:56:38;;;;;;;41.50;37.03;;;19.20;99.90;;;;;;5052809;28;20036;-25
2022/08/17 00:59:07;;;;;;;41.78;37.55;;;19.20;99.90;;;;;;5069511;28;20036;-26
2022/08/17 01:01:35;;;;;;;39.20;35.13;;;19.20;99.90;;;;;;5069790;28;20039;-27
2022/08/17 01:04:02;;;;;;;40.38;36.08;;;19.10;99.90;;;;;;5069633;28;20060;-25
2022/08/17 01:06:28;;;;;;;40.78;36.50;;;19.10;99.90;;;;;;5069138;28;20429;-28
2022/08/17 01:08:56;;;;;;;40.40;36.25;;;19.10;99.90;;;;;;5069814;28;20087;-27
2022/08/17 01:11:22;;;;;;;46.22;41.15;;;19.00;99.90;;;;;;5052875;28;20044;-25
2022/08/17 01:13:48;;;;;;;42.75;37.50;;;19.00;99.90;;;;;;5052678;28;20299;-26
2022/08/17 01:16:30;;;;;;;43.70;39.20;;;19.00;99.90;;;;;;5069045;28;20040;-27
2022/08/17 01:19:01;;;;;;;45.88;40.88;;;19.00;99.90;;;;;;5069411;28;20037;-27
2022/08/17 01:21:33;;;;;;;43.58;39.05;;;18.90;99.90;;;;;;5069353;28;20124;-26
2022/08/17 01:23:59;;;;;;;43.05;38.53;;;18.90;99.90;;;;;;5052908;28;20041;-26
2022/08/17 01:26:27;;;;;;;46.22;41.25;;;18.80;99.90;;;;;;5069578;28;20474;-26
2022/08/17 01:28:53;;;;;;;44.20;39.70;;;18.90;99.90;;;;;;5016356;28;20605;-29
2022/08/17 01:31:19;;;;;;;46.50;40.92;;;18.80;99.90;;;;;;5065047;28;20071;-26
2022/08/17 01:33:45;;;;;;;46.95;41.90;;;18.80;99.90;;;;;;5068778;28;20040;-25
2022/08/17 01:36:10;;;;;;;51.30;45.75;;;18.80;99.90;;;;;;5069012;28;20094;-27
2022/08/17 01:38:38;;;;;;;42.80;37.47;;;18.80;99.90;;;;;;5068918;28;20066;-27
2022/08/17 01:41:11;;;;;;;50.03;43.50;;;18.80;99.90;;;;;;5020053;28;1142124;-26
2022/08/17 01:43:43;;;;;;;41.92;37.58;;;18.80;99.90;;;;;;5046388;28;20102;-26
2022/08/17 01:46:15;;;;;;;43.67;39.03;;;18.70;99.90;;;;;;5069749;28;20097;-26
2022/08/17 01:48:42;;;;;;;43.33;38.83;;;18.80;99.90;;;;;;5053166;28;20286;-28
2022/08/17 01:51:08;;;;;;;41.25;36.67;;;18.80;99.90;;;;;;5058293;28;20040;-26
2022/08/17 01:53:38;;;;;;;41.70;37.47;;;18.80;99.90;;;;;;5069938;28;20037;-26
2022/08/17 01:56:13;;;;;;;45.15;38.40;;;18.80;99.90;;;;;;5059389;28;20424;-28
2022/08/17 01:58:41;;;;;;;40.72;36.42;;;18.70;99.90;;;;;;5051658;28;20047;-29
2022/08/17 02:01:08;;;;;;;46.03;38.72;;;18.70;99.90;;;;;;5069559;28;20045;-27
2022/08/17 02:03:36;;;;;;;44.05;39.55;;;18.70;99.90;;;;;;5035806;28;20103;-26
2022/08/17 02:06:04;;;;;;;43.60;38.58;;;18.70;99.90;;;;;;5052681;28;20059;-28
2022/08/17 02:08:34;;;;;;;46.67;41.88;;;18.70;99.90;;;;;;5052882;28;20041;-27
2022/08/17 02:11:10;;;;;;;40.67;36.42;;;18.70;99.90;;;;;;5052994;28;20036;-26
2022/08/17 02:13:36;;;;;;;43.17;38.47;;;18.70;99.90;;;;;;5053043;28;20490;-25
2022/08/17 02:16:03;;;;;;;43.35;38.55;;;18.70;99.90;;;;;;5070948;28;20040;-29
2022/08/17 02:18:29;;;;;;;41.97;37.58;;;18.70;99.90;;;;;;5055579;28;20490;-26
2022/08/17 02:20:55;;;;;;;40.28;36.22;;;18.70;99.90;;;;;;5051162;28;20033;-26
2022/08/17 02:23:23;;;;;;;42.95;37.92;;;18.70;99.90;;;;;;5020045;28;20045;-26
2022/08/17 02:25:53;;;;;;;40.78;36.50;;;18.70;99.90;;;;;;5036715;28;20033;-26
2022/08/17 02:28:19;;;;;;;40.92;36.47;;;18.80;99.90;;;;;;5046836;28;20115;-25
2022/08/17 02:30:45;;;;;;;41.78;37.50;;;18.70;99.90;;;;;;5074775;28;20115;-25
2022/08/17 02:33:11;;;;;;;43.08;38.33;;;18.70;99.90;;;;;;5068272;28;20494;-27
2022/08/17 02:35:38;;;;;;;43.28;38.67;;;18.70;99.90;;;;;;5073175;28;20064;-29
2022/08/17 02:38:05;;;;;;;41.65;36.83;;;18.70;99.90;;;;;;5072937;28;20040;-29
2022/08/17 02:40:33;;;;;;;40.40;36.05;;;18.70;99.90;;;;;;5056208;28;20040;-25
2022/08/17 02:42:59;;;;;;;44.17;39.40;;;18.70;99.90;;;;;;5067681;28;20510;-26
2022/08/17 02:45:26;;;;;;;43.47;38.65;;;18.70;99.90;;;;;;5041504;28;20048;-28
2022/08/17 02:47:52;;;;;;;40.35;36.25;;;18.70;99.90;;;;;;5073073;28;20098;-28
2022/08/17 02:50:21;;;;;;;41.10;36.80;;;18.60;99.90;;;;;;5072640;28;20119;-29
2022/08/17 02:52:49;;;;;;;41.42;37.03;;;18.60;99.90;;;;;;5056335;28;20040;-25
2022/08/17 02:55:24;;;;;;;44.55;39.63;;;18.60;99.90;;;;;;5073213;28;20406;-23
2022/08/17 02:57:51;;;;;;;51.38;43.88;;;18.60;99.90;;;;;;5056746;28;20118;-26
2022/08/17 03:00:32;;;;;;;43.83;39.10;;;18.60;99.90;;;;;;5055810;28;20036;-24
2022/08/17 03:02:59;;;;;;;42.65;38.00;;;18.60;99.90;;;;;;5071759;28;20036;-26
2022/08/17 03:05:27;;;;;;;45.92;40.33;;;18.60;99.90;;;;;;5073115;28;20044;-24
2022/08/17 03:07:53;;;;;;;42.10;37.72;;;18.60;99.90;;;;;;5028928;28;20143;-25
2022/08/17 03:10:20;;;;;;;40.92;36.72;;;18.50;99.90;;;;;;5062199;28;20401;-25
2022/08/17 03:12:46;;;;;;;41.20;36.83;;;18.50;99.90;;;;;;5054898;28;20554;-24
2022/08/17 03:15:24;;;;;;;40.33;36.15;;;18.50;99.90;;;;;;5055805;28;20032;-24
2022/08/17 03:17:51;;;;;;;44.60;38.58;;;18.50;99.90;;;;;;5072651;28;20059;-25
2022/08/17 03:20:18;;;;;;;43.17;38.38;;;18.50;99.90;;;;;;5045783;28;20037;-25
2022/08/17 03:22:47;;;;;;;43.40;38.80;;;18.50;99.90;;;;;;5080332;28;20036;-24
2022/08/17 03:25:21;;;;;;;42.47;37.63;;;18.50;99.90;;;;;;5061751;28;20033;-26
2022/08/17 03:27:46;;;;;;;;;;;18.50;99.90;;;;;;5055916;28;20032;-24
2022/08/17 03:30:13;;;;;;;41.83;37.60;;;18.50;99.90;;;;;;5059790;28;20411;-24
2022/08/17 03:32:42;;;;;;;40.97;36.80;;;18.50;99.90;;;;;;5064531;28;20493;-25
2022/08/17 03:35:09;;;;;;;47.58;42.63;;;18.50;99.90;;;;;;5072530;28;20037;-25
2022/08/17 03:37:35;;;;;;;45.55;40.15;;;18.50;99.90;;;;;;5071953;28;20040;-24
2022/08/17 03:40:02;;;;;;;45.83;40.65;;;18.60;99.90;;;;;;5071444;28;20482;-26
2022/08/17 03:42:28;;;;;;;48.33;42.78;;;18.60;99.90;;;;;;5055155;28;20047;-25
2022/08/17 03:44:56;;;;;;;46.65;41.55;;;18.60;99.90;;;;;;5054823;28;20405;-26
2022/08/17 03:58:36;;;;;;;43.80;39.10;;;18.70;99.90;;;;;;5052564;28;20045;-25
2022/08/17 04:01:04;;;;;;;45.28;40.35;;;18.70;99.90;;;;;;5050978;28;20037;-25
2022/08/17 04:03:30;;;;;;;44.40;39.55;;;18.70;99.90;;;;;;5054778;28;20521;-25
2022/08/17 04:05:56;;;;;;;44.67;39.50;;;18.80;99.90;;;;;;5054422;28;20032;-24
2022/08/17 04:08:22;;;;;;;45.38;40.50;;;18.80;99.90;;;;;;5067337;28;20040;-24
2022/08/17 04:10:48;;;;;;;44.45;39.65;;;18.80;99.90;;;;;;5070734;28;20115;-25
2022/08/17 04:13:14;;;;;;;43.58;38.92;;;18.80;99.90;;;;;;5037511;28;20124;-26
2022/08/17 04:15:40;;;;;;;46.88;41.97;;;18.80;99.90;;;;;;5071484;28;20036;-26
2022/08/17 04:18:06;;;;;;;51.25;45.78;;;18.90;99.90;;;;;;5080813;28;20048;-26
2022/08/17 04:20:32;;;;;;;46.45;41.40;;;18.80;99.90;;;;;;5072104;28;20040;-24
2022/08/17 04:23:03;;;;;;;45.40;40.65;;;18.80;99.90;;;;;;5060598;28;20097;-26
2022/08/17 04:25:32;;;;;;;45.63;40.72;;;18.80;99.90;;;;;;5060052;28;20059;-26
2022/08/17 04:27:59;;;;;;;47.75;42.65;;;18.80;99.90;;;;;;5052569;28;20036;-24
2022/08/17 04:30:26;;;;;;;47.10;39.40;;;18.80;99.90;;;;;;5054023;28;20097;-24
2022/08/17 04:33:07;;;;;;;44.80;40.03;;;18.80;99.90;;;;;;5070479;28;20041;-24
2022/08/17 04:35:48;;;;;;;46.70;41.60;;;18.90;99.90;;;;;;5070440;28;20043;-25
2022/08/17 04:38:16;;;;;;;49.22;43.67;;;18.90;99.90;;;;;;5061678;28;20039;-26
2022/08/17 04:43:29;;;;;;;47.70;41.28;;;18.90;99.90;;;;;;5052393;28;20106;-26
2022/08/17 04:45:59;;;;;;;53.35;47.38;;;18.90;99.90;;;;;;5070530;28;20103;-26
2022/08/17 04:48:29;;;;;;;50.85;44.97;;;18.90;99.90;;;;;;5060177;28;20032;-24
2022/08/17 04:50:57;;;;;;;47.97;40.88;;;19.00;99.90;;;;;;5071238;28;20043;-24
2022/08/17 04:53:23;;;;;;;47.83;42.80;;;18.90;99.90;;;;;;5070632;28;20465;-26
2022/08/17 04:55:52;;;;;;;51.03;44.22;;;19.00;99.90;;;;;;5070004;28;20079;-25
2022/08/17 04:58:18;;;;;;;46.65;41.67;;;18.90;99.90;;;;;;5053730;28;20032;-24
2022/08/17 05:00:45;;;;;;;47.58;41.72;;;18.90;99.90;;;;;;5053581;28;20508;-25
2022/08/17 05:03:11;;;;;;;49.35;44.05;;;19.00;99.90;;;;;;5053502;28;20028;-25
2022/08/17 05:05:41;;;;;;;47.00;42.00;;;19.00;99.90;;;;;;5071297;28;20154;-24
2022/08/17 05:08:08;;;;;;;49.72;44.45;;;19.00;99.90;;;;;;5052326;28;20498;-25
2022/08/17 05:10:37;;;;;;;51.72;44.10;;;19.00;99.90;;;;;;5071451;28;20041;-25
2022/08/17 05:13:07;;;;;;;49.00;43.13;;;19.00;99.90;;;;;;5053058;28;20040;-25
2022/08/17 05:15:36;;;;;;;51.17;43.85;;;19.00;99.90;;;;;;5052659;28;20044;-25
2022/08/17 05:18:02;;;;;;;46.60;41.53;;;19.00;99.90;;;;;;5067683;28;20215;-26
2022/08/17 05:20:28;;;;;;;50.78;45.30;;;19.00;99.90;;;;;;5069267;28;20044;-25
2022/08/17 05:23:00;;;;;;;46.15;41.28;;;19.10;99.90;;;;;;5069670;28;20292;-24
2022/08/17 05:25:28;;;;;;;48.40;41.95;;;19.10;99.90;;;;;;5049592;28;20090;-26
2022/08/17 05:27:57;;;;;;;46.85;41.95;;;19.10;99.90;;;;;;5062710;28;20098;-24
2022/08/17 05:30:24;;;;;;;50.95;43.67;;;19.10;99.90;;;;;;5051214;28;20094;-24
2022/08/17 05:32:57;;;;;;;50.45;43.60;;;19.10;99.90;;;;;;5064804;28;20039;-27
2022/08/17 05:35:25;;;;;;;49.28;44.10;;;19.20;99.90;;;;;;5053110;28;20488;-24
2022/08/17 05:37:52;;;;;;;48.67;43.28;;;19.20;99.90;;;;;;5069245;28;20097;-25
2022/08/17 05:40:19;;;;;;;46.95;41.85;;;19.20;99.90;;;;;;5054677;28;20095;-26
2022/08/17 05:42:46;;;;;;;46.53;41.53;;;19.20;99.90;;;;;;5062617;28;20064;-25
2022/08/17 05:45:14;;;;;;;48.55;42.38;;;19.30;99.90;;;;;;5059320;28;20047;-24
2022/08/17 05:47:44;;;;;;;49.35;44.03;;;19.20;99.90;;;;;;5069735;28;20037;-27
2022/08/17 05:50:20;;;;;;;49.35;43.22;;;19.30;99.90;;;;;;5070599;28;20040;-26
2022/08/17 05:53:01;;;;;;;52.63;43.15;;;19.30;99.90;;;;;;5068977;28;20087;-24
2022/08/17 05:55:38;;;;;;;50.13;44.72;;;19.20;99.90;;;;;;5048767;28;20574;-24
2022/08/17 05:58:31;;;;;;;53.58;45.55;;;19.30;99.90;;;;;;5052225;28;20047;-26
2022/08/17 06:01:16;;;;;;;54.97;46.47;;;19.40;99.90;;;;;;5063736;28;20043;-25
2022/08/17 06:03:55;;;;;;;52.10;45.60;;;19.30;99.90;;;;;;5047622;28;20428;-24
2022/08/17 06:06:56;;;;;;;48.08;42.83;;;19.40;99.90;;;;;;5053340;28;20402;-26
2022/08/17 06:09:38;;;;;;;47.72;41.40;;;19.40;99.90;;;;;;5045416;28;20052;-26
2022/08/17 06:12:04;;;;;;;48.77;43.53;;;19.40;99.90;;;;;;5052864;28;20466;-26
2022/08/17 06:14:50;;;;;;;50.17;44.67;;;19.40;99.90;;;;;;5069323;28;20045;-26
2022/08/17 06:17:21;;;;;;;45.88;40.53;;;19.50;99.90;;;;;;5042228;28;20383;-26
2022/08/17 06:19:54;;;;;;;45.95;40.58;;;19.50;99.90;;;;;;5069578;28;20048;-25
2022/08/17 06:22:25;;;;;;;49.25;42.92;;;19.50;99.90;;;;;;5069467;28;20087;-24
2022/08/17 06:25:04;;;;;;;45.33;40.63;;;19.50;99.90;;;;;;5062283;28;20040;-26
2022/08/17 06:27:39;;;;;;;43.28;38.88;;;19.60;99.90;;;;;;5069110;28;20044;-24
2022/08/17 06:30:16;;;;;;;46.25;41.28;;;19.60;99.90;;;;;;5069210;28;20101;-24
2022/08/17 06:32:44;;;;;;;45.20;40.33;;;19.70;99.90;;;;;;5055058;28;20545;-25
2022/08/17 06:35:14;;;;;;;45.47;40.55;;;19.80;99.90;;;;;;5052177;28;20049;-25
2022/08/17 06:38:08;;;;;;;46.50;41.28;;;19.80;99.90;;;;;;5052719;28;20473;-26
2022/08/17 06:41:03;;;;;;;46.58;41.65;;;19.90;99.90;;;;;;5064494;28;20055;-24
2022/08/17 06:43:56;;;;;;;43.50;38.85;;;20.10;99.90;;;;;;5068726;28;20062;-24
2022/08/17 06:46:47;;;;;;;41.40;37.08;;;20.20;99.90;;;;;;5056308;28;20047;-24
2022/08/17 06:49:20;;;;;;;43.78;38.10;;;20.30;99.90;;;;;;5060665;28;20029;-25
2022/08/17 06:52:04;;;;;;;40.28;36.17;;;20.40;99.90;;;;;;5068706;28;20094;-26
2022/08/17 06:54:36;;;;;;;40.63;36.45;;;20.50;99.90;;;;;;5069243;28;20048;-24
2022/08/17 06:57:36;;;;;;;39.95;35.40;;;20.70;99.90;;;;;;5061967;28;20044;-24
2022/08/17 07:00:16;;;;;;;42.53;38.17;;;20.80;99.90;;;;;;5055363;28;20032;-24
2022/08/17 07:03:12;;;;;;;35.80;32.22;;;20.90;99.90;;;;;;5052784;28;20063;-25
2022/08/17 07:05:50;;;;;;;39.85;35.90;;;21.10;99.90;;;;;;5058496;28;20037;-25
2022/08/17 07:08:32;;;;;;;39.67;35.88;;;21.20;99.90;;;;;;5072933;28;20063;-27
2022/08/17 07:11:03;;;;;;;40.33;36.42;;;21.30;99.90;;;;;;5072540;28;20044;-27
2022/08/17 07:14:07;;;;;;;38.42;34.53;;;21.40;99.90;;;;;;5055757;28;20040;-27
2022/08/17 07:16:47;;;;;;;37.55;33.67;;;21.40;99.90;;;;;;5056028;28;20044;-27
2022/08/17 07:19:21;;;;;;;36.55;33.03;;;21.50;99.90;;;;;;5072526;28;20044;-27
2022/08/17 07:21:50;;;;;;;36.15;32.63;;;21.50;99.90;;;;;;5055862;28;20040;-25
2022/08/17 07:24:52;;;;;;;36.70;33.08;;;21.70;99.90;;;;;;5055712;28;20044;-25
2022/08/17 07:27:21;;;;;;;35.50;31.45;;;21.90;99.90;;;;;;5061279;28;20385;-26
2022/08/17 07:30:06;;;;;;;38.55;34.55;;;22.00;99.90;;;;;;5071424;28;20068;-27
2022/08/17 07:32:43;;;;;;;34.28;30.88;;;22.10;99.90;;;;;;5072426;28;20040;-26
2022/08/17 07:35:29;;;;;;;33.67;30.35;;;22.30;99.90;;;;;;5072319;28;20052;-26
2022/08/17 07:38:10;;;;;;;32.17;29.17;;;22.40;99.90;;;;;;5072605;28;20398;-25
2022/08/17 07:40:47;;;;;;;34.03;30.50;;;22.50;99.90;;;;;;5038675;28;20097;-25
2022/08/17 07:43:26;;;;;;;31.58;28.35;;;22.60;99.90;;;;;;5055501;28;20033;-26
2022/08/17 07:48:50;;;;;;;31.98;28.77;;;22.70;99.90;;;;;;5073884;28;20044;-26
2022/08/17 07:51:25;;;;;;;32.38;29.23;;;22.80;99.90;;;;;;5058793;28;20044;-25
2022/08/17 07:53:53;;;;;;;32.00;29.00;;;23.00;99.90;;;;;;5055395;28;20130;-27
2022/08/17 07:56:42;;;;;;;29.80;26.88;;;23.10;99.90;;;;;;5055391;28;20045;-27
2022/08/17 07:59:25;;;;;;;31.05;27.77;;;23.20;99.90;;;;;;5072277;28;20112;-25
2022/08/17 08:01:54;;;;;;;30.73;27.88;;;23.30;99.90;;;;;;5071919;28;20045;-25
2022/08/17 08:04:28;;;;;;;30.95;27.98;;;23.30;99.90;;;;;;5055416;28;20470;-25
2022/08/17 08:07:00;;;;;;;29.50;26.70;;;23.20;99.90;;;;;;5055102;28;20036;-27
2022/08/17 08:09:34;;;;;;;29.40;26.48;;;23.20;99.90;;;;;;5045617;28;20032;-26
2022/08/17 08:12:43;;;;;;;28.48;25.70;;;23.30;99.90;;;;;;5035470;28;20094;-26
2022/08/17 08:15:18;;;;;;;30.40;27.35;;;23.50;99.90;;;;;;5055367;28;20046;-28
2022/08/17 08:18:19;;;;;;;28.08;25.23;;;23.60;99.90;;;;;;5071666;28;20044;-25
2022/08/17 08:20:56;;;;;;;28.38;25.48;;;23.70;99.90;;;;;;5055139;28;20402;-25
2022/08/17 08:23:49;;;;;;;27.60;24.95;;;23.70;99.90;;;;;;5055188;28;20043;-27
2022/08/17 08:26:32;;;;;;;26.83;24.20;;;23.60;99.90;;;;;;5054898;28;20043;-27
2022/08/17 08:29:51;;;;;;;27.27;24.77;;;23.50;99.90;;;;;;5055004;28;20080;-26
2022/08/17 08:32:38;;;;;;;28.35;25.50;;;23.40;99.90;;;;;;5001680;28;20084;-25
2022/08/17 08:35:21;;;;;;;27.73;25.20;;;23.30;99.90;;;;;;5054941;28;20532;-26
2022/08/17 08:38:18;;;;;;;29.35;26.50;;;23.30;99.90;;;;;;5054762;28;20089;-26
2022/08/17 08:40:59;;;;;;;30.95;27.92;;;23.20;99.90;;;;;;5054431;28;20045;-26
2022/08/17 08:43:35;;;;;;;27.90;25.30;;;23.10;99.90;;;;;;5054089;28;20124;-27
2022/08/17 08:46:05;;;;;;;28.60;25.85;;;23.10;99.90;;;;;;5054668;28;20051;-27
2022/08/17 08:49:15;;;;;;;28.95;26.13;;;23.10;99.90;;;;;;5054345;28;20565;-25
2022/08/17 08:51:50;;;;;;;27.10;24.50;;;23.30;99.90;;;;;;5054446;28;20310;-25
2022/08/17 08:54:43;;;;;;;25.77;23.15;;;23.30;99.90;;;;;;5072280;28;20043;-26
2022/08/17 08:57:26;;;;;;;26.58;24.20;;;23.50;99.90;;;;;;5087602;28;20086;-27
2022/08/17 09:00:18;;;;;;;;;;;23.50;99.90;;;;;;5054535;28;20429;-24
2022/08/17 09:02:53;;;;;;;28.30;25.60;;;23.60;99.90;;;;;;5083757;28;19916;-26
2022/08/17 09:05:46;;;;;;;28.80;26.02;;;23.70;99.90;;;;;;5070937;28;20036;-25
2022/08/17 09:08:44;;;;;;;29.83;26.73;;;23.70;99.90;;;;;;5070748;28;20056;-27
2022/08/17 09:11:39;;;;;;;25.95;23.35;;;23.70;99.90;;;;;;5025893;28;20048;-27
2022/08/17 09:14:14;;;;;;;26.25;23.52;;;23.80;99.90;;;;;;5070439;28;20072;-27
2022/08/17 09:16:45;;;;;;;26.27;23.77;;;23.80;99.90;;;;;;5070391;28;20162;-27
2022/08/17 09:19:41;;;;;;;25.38;22.67;;;23.80;99.90;;;;;;5070639;28;20041;-27
2022/08/17 09:22:33;;;;;;;24.42;22.02;;;23.90;99.90;;;;;;5071862;28;20063;-25
2022/08/17 09:25:11;;;;;;;25.75;23.33;;;23.80;99.90;;;;;;5059116;28;20157;-26
2022/08/17 09:27:52;;;;;;;24.67;22.48;;;23.80;99.90;;;;;;5053652;28;20497;-27
2022/08/17 09:30:19;;;;;;;23.17;21.08;;;23.80;99.90;;;;;;5053303;28;20459;-28
2022/08/17 09:32:48;;;;;;;23.50;21.23;;;23.90;99.90;;;;;;5053824;28;20036;-25
2022/08/17 09:35:16;;;;;;;22.42;20.23;;;24.00;99.90;;;;;;5054082;28;20127;-26
2022/08/17 09:38:09;;;;;;;22.85;20.60;;;24.40;99.90;;;;;;5069922;28;20040;-26
2022/08/17 09:40:44;;;;;;;;;;;24.50;99.90;;;;;;5054027;28;20032;-25
2022/08/17 09:43:42;;;;;;;20.13;18.13;;;24.90;99.90;;;;;;5053579;28;20396;-28
2022/08/17 09:46:30;;;;;;;21.48;19.38;;;25.40;99.90;;;;;;5053928;28;20043;-26
2022/08/17 09:49:02;;;;;;;21.10;19.20;;;25.60;99.90;;;;;;5053858;28;20040;-27
2022/08/17 09:51:48;;;;;;;20.67;18.80;;;25.70;99.90;;;;;;5070291;28;20127;-26
2022/08/17 09:54:36;;;;;;;18.15;16.45;;;25.60;99.90;;;;;;5070040;28;20076;-26
2022/08/17 09:57:27;;;;;;;17.85;16.15;;;25.60;99.90;;;;;;5052926;28;20037;-28
2022/08/17 10:00:14;;;;;;;17.80;16.27;;;25.50;99.90;;;;;;5053020;28;20040;-27
2022/08/17 10:02:59;;;;;;;17.92;16.45;;;25.40;99.90;;;;;;5069746;28;20040;-27
2022/08/17 10:05:30;;;;;;;16.08;14.77;;;25.40;99.90;;;;;;5053223;28;20033;-28
2022/08/17 10:08:02;;;;;;;17.42;15.90;;;25.50;99.90;;;;;;5069803;28;20032;-28
2022/08/17 10:11:04;;;;;;;17.25;15.68;;;25.40;99.90;;;;;;5069784;28;20520;-26
2022/08/17 10:13:38;;;;;;;18.83;17.08;;;25.40;99.90;;;;;;5053225;28;20067;-28
2022/08/17 10:16:09;;;;;;;16.10;14.60;;;25.30;99.90;;;;;;5063491;28;20366;-26
2022/08/17 10:18:53;;;;;;;20.17;18.02;;;25.40;99.90;;;;;;5070552;28;20393;-26
2022/08/17 10:27:00;;;;;;;15.65;14.45;;;25.30;99.90;;;;;;5070990;28;20102;-25
2022/08/17 10:29:41;;;;;;;17.67;16.08;;;25.40;99.90;;;;;;5052935;28;20464;-26
2022/08/17 10:32:11;;;;;;;18.38;16.67;;;25.60;99.90;;;;;;5033271;28;20036;-25
2022/08/17 10:35:09;;;;;;;17.70;16.20;;;25.90;99.90;;;;;;5049369;28;20029;-25
2022/08/17 10:37:48;;;;;;;18.63;16.92;;;26.40;99.90;;;;;;5062740;28;20036;-25
2022/08/17 10:40:34;;;;;;;19.08;17.20;;;26.70;99.90;;;;;;5059825;28;20048;-25
2022/08/17 10:43:00;;;;;;;18.60;16.90;;;26.70;99.90;;;;;;5052062;28;20181;-26
2022/08/17 10:45:54;;;;;;;19.35;17.75;;;26.80;99.90;;;;;;5056738;28;20045;-26
2022/08/17 10:48:36;;;;;;;17.17;15.50;;;27.00;99.90;;;;;;5052594;28;20123;-25
2022/08/17 10:51:08;;;;;;;19.23;17.42;;;27.40;99.90;;;;;;5056406;28;20041;-25
2022/08/17 10:53:33;;;;;;;19.27;17.55;;;27.80;99.90;;;;;;5056358;28;20119;-39
2022/08/17 10:56:11;;;;;;;17.20;15.80;;;27.90;99.90;;;;;;5073992;28;20139;-26
2022/08/17 10:58:44;;;;;;;16.48;15.07;;;28.10;99.90;;;;;;5069901;28;20068;-27
2022/08/17 11:01:11;;;;;;;;;;;28.20;99.90;;;;;;5056762;28;20043;-26
2022/08/17 11:03:51;;;;;;;16.73;15.23;;;28.40;99.90;;;;;;5070084;28;19920;-26
2022/08/17 11:06:24;;;;;;;17.27;15.75;;;28.30;99.90;;;;;;5073025;28;20029;-28
2022/08/17 11:08:56;;;;;;;;;;;28.20;99.90;;;;;;5073640;28;20032;-27
2022/08/17 11:11:44;;;;;;;17.30;15.63;;;27.90;99.90;;;;;;5056328;28;19940;-26
2022/08/17 11:14:22;;;;;;;18.20;16.50;;;27.80;99.90;;;;;;5052965;28;20132;-26
2022/08/17 11:17:06;;;;;;;19.60;17.77;;;27.80;99.90;;;;;;5068980;28;20072;-26
2022/08/17 11:19:54;;;;;;;18.02;16.42;;;28.10;99.90;;;;;;5056093;28;20045;-27
2022/08/17 11:22:51;;;;;;;19.15;17.45;;;28.10;99.90;;;;;;5074009;28;20059;-26
2022/08/17 11:25:30;;;;;;;22.17;20.20;;;27.90;99.90;;;;;;5072753;28;20037;-26
2022/08/17 11:28:18;;;;;;;22.58;20.48;;;27.60;99.90;;;;;;5055810;28;20106;-26
2022/08/17 11:30:53;;;;;;;22.80;20.77;;;27.40;99.90;;;;;;5055862;28;20029;-26
2022/08/17 11:33:43;;;;;;;23.63;21.23;;;27.20;99.90;;;;;;5052604;28;20032;-26
2022/08/17 11:36:09;;;;;;;23.10;20.92;;;26.90;99.90;;;;;;5045469;28;20048;-26
2022/08/17 11:38:52;;;;;;;21.58;19.65;;;26.60;99.90;;;;;;5072606;28;20036;-27
2022/08/17 11:41:47;;;;;;;22.42;20.33;;;26.60;99.90;;;;;;5055554;28;20086;-25
2022/08/17 11:44:33;;;;;;;25.65;23.25;;;26.40;99.90;;;;;;5056021;28;20075;-26
2022/08/17 11:53:37;;;;;;;30.17;27.27;;;25.90;99.90;;;;;;5073695;28;20041;-24
2022/08/17 11:56:09;;;;;;;23.73;21.33;;;25.80;99.90;;;;;;5055145;28;20044;-25
2022/08/17 11:58:41;;;;;;;28.05;25.30;;;25.80;99.90;;;;;;5055434;28;20044;-26
2022/08/17 12:01:12;;;;;;;26.98;24.40;;;25.70;99.90;;;;;;5055110;28;20075;-25
2022/08/17 12:03:41;;;;;;;27.13;24.33;;;25.70;99.90;;;;;;5054575;28;20036;-25
2022/08/17 12:06:16;;;;;;;27.60;24.75;;;25.80;99.90;;;;;;5054990;28;20037;-25
2022/08/17 12:08:49;;;;;;;27.25;24.48;;;25.90;99.90;;;;;;5063311;28;20118;-25
2022/08/17 12:11:33;;;;;;;26.88;24.25;;;26.00;99.90;;;;;;5055070;28;20040;-25
2022/08/17 12:14:00;;;;;;;27.40;24.50;;;26.00;99.90;;;;;;5055279;28;20072;-25
2022/08/17 12:16:25;;;;;;;28.73;25.63;;;26.00;99.90;;;;;;5038292;28;20051;-26
2022/08/17 12:19:01;;;;;;;28.48;25.40;;;25.90;99.90;;;;;;5054068;28;20044;-29
2022/08/17 12:21:42;;;;;;;27.67;25.00;;;25.80;99.90;;;;;;5062655;28;20097;-30
2022/08/17 12:24:38;;;;;;;31.20;28.33;;;25.80;99.90;;;;;;5053555;28;20032;-30
2022/08/17 12:27:08;;;;;;;28.23;25.42;;;25.80;99.90;;;;;;5075176;28;20036;-29
2022/08/17 12:29:35;;;;;;;30.00;27.17;;;25.70;99.90;;;;;;5068690;28;20110;-29
2022/08/17 12:32:04;;;;;;;35.70;31.90;;;25.70;99.90;;;;;;5054727;28;20047;-29
2022/08/17 12:34:40;;;;;;;35.85;30.02;;;25.60;99.90;;;;;;5056914;28;20036;-30
2022/08/17 12:37:19;;;;;;;34.67;28.92;;;25.60;99.90;;;;;;5052292;28;20036;-30
2022/08/17 12:40:04;;;;;;;32.97;29.45;;;25.60;99.90;;;;;;5068807;28;20045;-30
2022/08/17 12:42:36;;;;;;;35.17;31.40;;;25.60;99.90;;;;;;5069587;28;20322;-31
2022/08/17 12:45:07;;;;;;;32.33;28.95;;;25.60;99.90;;;;;;5051863;28;20044;-32
2022/08/17 12:47:36;;;;;;;31.75;28.35;;;25.70;99.90;;;;;;5049711;28;20040;-31
2022/08/17 12:50:20;;;;;;;32.90;29.55;;;25.70;99.90;;;;;;5068343;28;20044;-31
2022/08/17 12:52:45;;;;;;;35.72;31.20;;;25.90;99.90;;;;;;5063171;28;20041;-30
2022/08/17 12:55:17;;;;;;;33.05;29.65;;;25.90;99.90;;;;;;5053491;28;20111;-32
2022/08/17 12:57:52;;;;;;;32.25;29.00;;;25.90;99.90;;;;;;5063904;28;20074;-32
2022/08/17 13:00:30;;;;;;;38.63;34.47;;;26.10;99.90;;;;;;5063695;28;20398;-31
2022/08/17 13:03:00;;;;;;;33.03;29.65;;;26.10;99.90;;;;;;5053053;28;20040;-32
2022/08/17 13:05:26;;;;;;;38.70;32.70;;;26.10;99.90;;;;;;5070332;28;20059;-31
2022/08/17 13:07:54;;;;;;;37.05;33.35;;;26.10;99.90;;;;;;5053075;28;20092;-31
2022/08/17 13:10:28;;;;;;;36.88;33.03;;;26.10;99.90;;;;;;5053048;28;20033;-33
2022/08/17 13:12:55;;;;;;;37.97;34.13;;;26.10;99.90;;;;;;5053278;28;20067;-30
2022/08/17 13:15:29;;;;;;;34.92;31.40;;;26.00;99.90;;;;;;5044152;28;20036;-33
2022/08/17 13:18:07;;;;;;;37.03;33.33;;;25.90;99.90;;;;;;5047988;28;20037;-30
2022/08/17 13:20:34;;;;;;;35.97;32.45;;;25.80;99.90;;;;;;5052009;28;20132;-30
2022/08/17 13:23:05;;;;;;;39.85;35.92;;;25.70;99.90;;;;;;5045717;28;20041;-32
2022/08/17 13:25:31;;;;;;;36.13;32.47;;;25.70;99.90;;;;;;5068103;28;20079;-29
2022/08/17 13:27:58;;;;;;;39.33;35.22;;;25.60;99.90;;;;;;5053490;28;20102;-29
2022/08/17 13:30:31;;;;;;;38.58;34.60;;;25.50;99.90;;;;;;5069854;28;20120;-29
2022/08/17 13:32:58;;;;;;;39.67;35.88;;;25.40;99.90;;;;;;5069741;28;20512;-30
2022/08/17 13:35:43;;;;;;;39.13;35.05;;;25.30;99.90;;;;;;5053159;28;20116;-30